Kezdőlap
METAR-TAF:

METAR-TAF

Repülőterek :

Sztriginói repülőtér

Nyizsnyij Novgorod, Oroszország

földrajzi szélesség: 56-19-48N, földrajzi hosszúság: 044-00E, magasság: 78 m

Jelenlegi meteorológiai megfigyelések

A jelentés 12 perccel ezelõtt készült, 00:00 UTC
Szélcsend
Hőmérséklet 2°C
Páratartalom 100%
Légköri nyomás 1008 hPa
Látótávolság 10 km, vagy több
felhőtlen 1500 m magasságban, és nincs gomolyfelhõ

METAR: UWGG 250000Z 00000MPS CAVOK 02/02 Q1008 R36R/090060 NOSIG

Idő: 03:12 (00:12 UTC)

Előrejelzés

A jelentés 1 órával és 18 perccel ezelõtt készült, 22:54 UTC
Az előrejelzés 25-én 00 óra UTC és 25-én 24 óra UTC között érvényes
Nyugati szél 6 kt
Látótávolság: 6000 m
Szakadozott felhőzet 2000 lábon
25-én 00 óra UTC és 25-én 12 óra UTC között ideiglenes
Szakadozott felhőzet 1100 lábon

TAF: UWGG 242254Z 2500/2524 26003MPS 6000 BKN020 TX07/2512Z TN01/2506Z TEMPO 2500/2512 BKN011

Meteorológiai megfigyelések és előrejelzések több, mint 4000 repülőtéren (METAR és TAF jelentéseket).

A térképen piros és sárga pontok jelzik az elérhető meteorológiai állomásokat.

Mozgassa az egeret a pont fölött, hogy megjelenjen az állomás neve.

Azután kattintson az időjárási megfigyelések és előrejelzések megtekintéséhez.

A térkép megváltoztatása: kattintson a fekete keresztel jelölt zöld gombra ráközelítéshez, a vonallal jelölt zöld gombra távolításhoz, vagy a zöld nyilakra a szomszédos térképek eléréséhez.


METAR-TAF: